Steprock, Arkansas
Current Conditions -  °F | °C
As of 1:56 PM on Thursday 30 Oct 2014 (Local Time) from KSRC Reporting Station
Clear Clear  
Wind Chill: 70°   Ceiling: Unl
Heat Index: 70°   Visibility: 10mi
Dew Point: 46°   Wind: 9mph
Humidity: 42%   Direction: 200°SSW
Pressure: 30.08"   Gusts: NA
Location:  35.43°N, 91.69°W
Report Text: KSRC 301856Z AUTO 20008KT 10SM CLR 21/08 A3008 RMK AO2 SLP192 T02110078 TSNO
Loading
Personal Weather Stations






























Interactive Weather Map
Tropical Storm Tracking
New forecast layout! Learn more

10-Day Weather Forecast

Advertisements
Track Severe Weather on mobile